createdAt,value
2018-06-27T18:10:33.405Z,5.10
2018-06-27T18:13:01.580Z,5.40
2018-06-27T18:15:29.809Z,4.80
2018-06-27T18:17:57.997Z,4.17
2018-06-27T18:20:27.897Z,3.60
2018-06-27T18:22:56.367Z,4.40
2018-06-27T18:25:24.633Z,4.80
2018-06-27T18:27:53.437Z,4.30
2018-06-27T18:30:21.940Z,4.27
2018-06-27T18:32:51.187Z,6.13
2018-06-27T18:37:55.766Z,4.47
2018-06-27T18:40:23.962Z,8.10
2018-06-27T18:42:52.447Z,4.47
2018-06-27T18:45:22.540Z,7.17
2018-06-27T18:47:50.873Z,4.93
2018-06-27T18:50:19.552Z,8.27
2018-06-27T18:52:47.818Z,3.10
2018-06-27T18:55:16.007Z,3.80
2018-06-27T18:57:44.674Z,3.73
2018-06-27T19:00:12.926Z,4.23
2018-06-27T19:02:41.124Z,4.40
2018-06-27T19:05:09.113Z,3.53
2018-06-27T19:07:37.907Z,4.17
2018-06-27T19:10:06.614Z,5.83
2018-06-27T19:12:34.785Z,4.87
2018-06-27T19:15:02.969Z,4.30
2018-06-27T19:17:31.240Z,6.83
2018-06-27T19:20:00.323Z,4.10
2018-06-27T19:22:28.577Z,3.83
2018-06-27T19:24:56.829Z,4.43
2018-06-27T19:27:25.042Z,4.83
2018-06-27T19:29:53.282Z,8.83
2018-06-27T19:32:21.460Z,6.73
2018-06-27T19:34:49.777Z,4.70
2018-06-27T19:37:17.985Z,5.87
2018-06-27T19:39:46.168Z,7.03
2018-06-27T19:42:14.364Z,6.30
2018-06-27T19:44:42.546Z,7.47
2018-06-27T19:47:10.786Z,6.17
2018-06-27T19:49:39.177Z,4.10
2018-06-27T19:52:07.444Z,6.70
2018-06-27T19:54:35.620Z,6.57
2018-06-27T19:57:03.826Z,5.03
2018-06-27T19:59:32.060Z,4.50
2018-06-27T20:02:00.308Z,6.33
2018-06-27T20:04:29.105Z,5.00
2018-06-27T20:06:57.277Z,6.30
2018-06-27T20:09:25.496Z,4.80
2018-06-27T20:11:53.673Z,6.10
2018-06-27T20:14:21.922Z,5.97
2018-06-27T20:16:50.040Z,5.57
2018-06-27T20:19:18.289Z,6.97
2018-06-27T20:21:46.444Z,6.93
2018-06-27T20:24:14.620Z,8.60
2018-06-27T20:26:42.801Z,7.87
2018-06-27T20:29:10.984Z,8.50
2018-06-27T20:31:39.165Z,7.67
2018-06-27T20:34:07.351Z,6.50
2018-06-27T20:36:35.541Z,7.57
2018-06-27T20:39:06.026Z,21.87
2018-06-27T20:41:34.208Z,16.17
2018-06-27T20:44:02.566Z,29.77
2018-06-27T20:46:30.760Z,15.67
2018-06-27T20:48:59.006Z,20.60
2018-06-27T20:51:27.177Z,6.93
2018-06-27T20:53:55.358Z,5.07
2018-06-27T20:56:23.735Z,8.07
2018-06-27T20:58:51.921Z,6.57
2018-06-27T21:01:20.174Z,5.50
2018-06-27T21:03:48.373Z,6.70
2018-06-27T21:06:16.557Z,6.53
2018-06-27T21:08:44.745Z,5.93
2018-06-27T21:11:12.920Z,8.57
2018-06-27T21:13:41.092Z,5.77
2018-06-27T21:16:09.276Z,7.07
2018-06-27T21:18:37.481Z,4.50
2018-06-27T21:21:05.668Z,5.10
2018-06-27T21:23:33.872Z,4.33
2018-06-27T21:26:02.106Z,4.63
2018-06-27T21:28:30.329Z,4.53
2018-06-27T21:30:58.500Z,4.97
2018-06-27T21:33:26.709Z,5.00
2018-06-27T21:35:54.856Z,6.57
2018-06-27T21:38:23.012Z,7.63
2018-06-27T21:40:51.377Z,5.73
2018-06-27T21:43:19.576Z,4.90
2018-06-27T21:45:47.704Z,4.50
2018-06-27T21:48:15.861Z,5.07
2018-06-27T21:50:44.009Z,5.67
2018-06-27T21:53:12.228Z,4.50
